sensor_id;sensor_type;location;lat;lon;timestamp;P1;durP1;ratioP1;P2;durP2;ratioP2
817;SDS011;391;51.052;6.954;2023-04-06T00:01:25;8.80;;;7.93;;
817;SDS011;391;51.052;6.954;2023-04-06T00:03:29;8.60;;;7.27;;
817;SDS011;391;51.052;6.954;2023-04-06T00:05:33;9.53;;;8.40;;
817;SDS011;391;51.052;6.954;2023-04-06T00:07:36;7.97;;;7.17;;
817;SDS011;391;51.052;6.954;2023-04-06T00:09:40;7.40;;;6.67;;
817;SDS011;391;51.052;6.954;2023-04-06T00:11:43;8.17;;;7.37;;
817;SDS011;391;51.052;6.954;2023-04-06T00:13:47;9.40;;;7.77;;
817;SDS011;391;51.052;6.954;2023-04-06T00:15:50;8.07;;;7.27;;
817;SDS011;391;51.052;6.954;2023-04-06T00:17:55;7.70;;;6.90;;
817;SDS011;391;51.052;6.954;2023-04-06T00:19:59;8.40;;;7.17;;
817;SDS011;391;51.052;6.954;2023-04-06T00:22:02;7.90;;;6.60;;
817;SDS011;391;51.052;6.954;2023-04-06T00:24:06;8.43;;;7.30;;
817;SDS011;391;51.052;6.954;2023-04-06T00:26:10;7.27;;;6.10;;
817;SDS011;391;51.052;6.954;2023-04-06T00:28:19;7.60;;;6.87;;
817;SDS011;391;51.052;6.954;2023-04-06T00:30:27;8.50;;;7.60;;
817;SDS011;391;51.052;6.954;2023-04-06T00:32:30;9.50;;;8.50;;
817;SDS011;391;51.052;6.954;2023-04-06T00:34:35;8.70;;;7.63;;
817;SDS011;391;51.052;6.954;2023-04-06T00:36:39;9.70;;;7.00;;
817;SDS011;391;51.052;6.954;2023-04-06T00:38:43;9.00;;;7.87;;
817;SDS011;391;51.052;6.954;2023-04-06T00:40:46;7.17;;;6.40;;
817;SDS011;391;51.052;6.954;2023-04-06T00:42:50;8.17;;;7.00;;
817;SDS011;391;51.052;6.954;2023-04-06T00:44:53;10.43;;;7.33;;
817;SDS011;391;51.052;6.954;2023-04-06T00:46:58;8.77;;;7.20;;
817;SDS011;391;51.052;6.954;2023-04-06T00:49:01;6.47;;;5.83;;
817;SDS011;391;51.052;6.954;2023-04-06T00:51:06;12.07;;;7.27;;
817;SDS011;391;51.052;6.954;2023-04-06T00:53:10;10.00;;;7.07;;
817;SDS011;391;51.052;6.954;2023-04-06T00:55:14;8.30;;;7.13;;
817;SDS011;391;51.052;6.954;2023-04-06T00:57:17;7.80;;;7.00;;
817;SDS011;391;51.052;6.954;2023-04-06T00:59:27;8.27;;;6.87;;
817;SDS011;391;51.052;6.954;2023-04-06T01:01:33;11.03;;;8.10;;
817;SDS011;391;51.052;6.954;2023-04-06T01:03:49;10.53;;;9.13;;
817;SDS011;391;51.052;6.954;2023-04-06T01:05:54;11.30;;;9.33;;
817;SDS011;391;51.052;6.954;2023-04-06T01:08:07;14.90;;;11.87;;
817;SDS011;391;51.052;6.954;2023-04-06T01:10:11;16.17;;;11.63;;
817;SDS011;391;51.052;6.954;2023-04-06T01:12:27;10.50;;;8.70;;
817;SDS011;391;51.052;6.954;2023-04-06T01:14:32;11.70;;;10.40;;
817;SDS011;391;51.052;6.954;2023-04-06T01:16:36;12.40;;;7.67;;
817;SDS011;391;51.052;6.954;2023-04-06T01:18:44;9.77;;;8.17;;
817;SDS011;391;51.052;6.954;2023-04-06T01:20:51;11.07;;;8.55;;
817;SDS011;391;51.052;6.954;2023-04-06T01:22:57;8.63;;;7.70;;
817;SDS011;391;51.052;6.954;2023-04-06T01:25:01;11.57;;;8.77;;
817;SDS011;391;51.052;6.954;2023-04-06T01:27:20;10.27;;;7.43;;
817;SDS011;391;51.052;6.954;2023-04-06T01:29:36;9.00;;;8.10;;
817;SDS011;391;51.052;6.954;2023-04-06T01:31:42;11.67;;;7.83;;
817;SDS011;391;51.052;6.954;2023-04-06T01:33:46;11.07;;;8.80;;
817;SDS011;391;51.052;6.954;2023-04-06T01:35:52;11.40;;;8.80;;
817;SDS011;391;51.052;6.954;2023-04-06T01:37:58;9.77;;;8.87;;
817;SDS011;391;51.052;6.954;2023-04-06T01:40:06;9.63;;;7.30;;
817;SDS011;391;51.052;6.954;2023-04-06T01:42:17;8.30;;;7.30;;
817;SDS011;391;51.052;6.954;2023-04-06T01:44:22;8.43;;;7.10;;
817;SDS011;391;51.052;6.954;2023-04-06T01:46:38;10.50;;;7.50;;
817;SDS011;391;51.052;6.954;2023-04-06T01:48:43;7.93;;;7.17;;
817;SDS011;391;51.052;6.954;2023-04-06T01:50:54;9.37;;;6.67;;
817;SDS011;391;51.052;6.954;2023-04-06T01:53:05;9.90;;;8.88;;
817;SDS011;391;51.052;6.954;2023-04-06T01:55:09;14.63;;;8.80;;
817;SDS011;391;51.052;6.954;2023-04-06T01:57:30;8.93;;;8.00;;
817;SDS011;391;51.052;6.954;2023-04-06T01:59:43;9.47;;;7.07;;
817;SDS011;391;51.052;6.954;2023-04-06T02:02:10;9.40;;;8.40;;
817;SDS011;391;51.052;6.954;2023-04-06T02:04:19;10.27;;;8.03;;
817;SDS011;391;51.052;6.954;2023-04-06T02:06:28;11.80;;;9.10;;
817;SDS011;391;51.052;6.954;2023-04-06T02:08:36;8.50;;;7.20;;
817;SDS011;391;51.052;6.954;2023-04-06T02:10:39;9.37;;;8.47;;
817;SDS011;391;51.052;6.954;2023-04-06T02:12:52;9.30;;;7.90;;
817;SDS011;391;51.052;6.954;2023-04-06T02:15:04;9.07;;;7.10;;
817;SDS011;391;51.052;6.954;2023-04-06T02:17:08;9.13;;;7.70;;
817;SDS011;391;51.052;6.954;2023-04-06T02:19:11;7.70;;;6.90;;
817;SDS011;391;51.052;6.954;2023-04-06T02:21:15;9.63;;;7.88;;
817;SDS011;391;51.052;6.954;2023-04-06T02:23:21;9.33;;;7.57;;
817;SDS011;391;51.052;6.954;2023-04-06T02:25:26;7.77;;;7.07;;
817;SDS011;391;51.052;6.954;2023-04-06T02:27:30;9.97;;;9.03;;
817;SDS011;391;51.052;6.954;2023-04-06T02:29:34;9.43;;;6.80;;
817;SDS011;391;51.052;6.954;2023-04-06T02:31:38;8.10;;;5.87;;
817;SDS011;391;51.052;6.954;2023-04-06T02:33:43;8.10;;;7.30;;
817;SDS011;391;51.052;6.954;2023-04-06T02:35:49;8.60;;;7.40;;
817;SDS011;391;51.052;6.954;2023-04-06T02:37:52;9.13;;;7.33;;
817;SDS011;391;51.052;6.954;2023-04-06T02:39:56;10.03;;;8.33;;
817;SDS011;391;51.052;6.954;2023-04-06T02:42:01;8.47;;;7.60;;
817;SDS011;391;51.052;6.954;2023-04-06T02:44:05;8.10;;;7.30;;
817;SDS011;391;51.052;6.954;2023-04-06T02:46:17;7.93;;;7.13;;
817;SDS011;391;51.052;6.954;2023-04-06T02:48:21;7.93;;;7.13;;
817;SDS011;391;51.052;6.954;2023-04-06T02:50:25;7.05;;;6.35;;
817;SDS011;391;51.052;6.954;2023-04-06T02:52:34;7.38;;;6.55;;
817;SDS011;391;51.052;6.954;2023-04-06T02:54:38;7.17;;;6.47;;
817;SDS011;391;51.052;6.954;2023-04-06T02:56:41;9.50;;;6.70;;
817;SDS011;391;51.052;6.954;2023-04-06T02:58:47;6.47;;;5.88;;
817;SDS011;391;51.052;6.954;2023-04-06T03:00:52;8.43;;;7.47;;
817;SDS011;391;51.052;6.954;2023-04-06T03:02:55;8.00;;;6.00;;
817;SDS011;391;51.052;6.954;2023-04-06T03:05:01;7.10;;;6.40;;
817;SDS011;391;51.052;6.954;2023-04-06T03:07:11;8.00;;;7.20;;
817;SDS011;391;51.052;6.954;2023-04-06T03:09:15;8.70;;;7.80;;
817;SDS011;391;51.052;6.954;2023-04-06T03:11:19;9.30;;;7.43;;
817;SDS011;391;51.052;6.954;2023-04-06T03:13:25;7.57;;;6.68;;
817;SDS011;391;51.052;6.954;2023-04-06T03:15:33;7.15;;;6.30;;
817;SDS011;391;51.052;6.954;2023-04-06T03:17:46;7.83;;;7.13;;
817;SDS011;391;51.052;6.954;2023-04-06T03:20:05;7.57;;;6.78;;
817;SDS011;391;51.052;6.954;2023-04-06T03:22:09;9.17;;;6.47;;
817;SDS011;391;51.052;6.954;2023-04-06T03:24:13;9.48;;;6.45;;
817;SDS011;391;51.052;6.954;2023-04-06T03:26:17;15.02;;;8.75;;
817;SDS011;391;51.052;6.954;2023-04-06T03:28:21;9.10;;;6.63;;
817;SDS011;391;51.052;6.954;2023-04-06T03:30:29;8.87;;;6.30;;
817;SDS011;391;51.052;6.954;2023-04-06T03:32:34;8.40;;;6.75;;
817;SDS011;391;51.052;6.954;2023-04-06T03:34:38;10.00;;;7.73;;
817;SDS011;391;51.052;6.954;2023-04-06T03:36:43;11.05;;;7.40;;
817;SDS011;391;51.052;6.954;2023-04-06T03:38:47;11.97;;;10.53;;
817;SDS011;391;51.052;6.954;2023-04-06T03:40:50;12.40;;;9.40;;
817;SDS011;391;51.052;6.954;2023-04-06T03:42:58;12.03;;;9.10;;
817;SDS011;391;51.052;6.954;2023-04-06T03:45:05;8.98;;;7.75;;
817;SDS011;391;51.052;6.954;2023-04-06T03:47:12;9.98;;;8.10;;
817;SDS011;391;51.052;6.954;2023-04-06T03:49:17;7.77;;;6.93;;
817;SDS011;391;51.052;6.954;2023-04-06T03:51:25;11.80;;;10.20;;
817;SDS011;391;51.052;6.954;2023-04-06T03:53:28;8.60;;;7.60;;
817;SDS011;391;51.052;6.954;2023-04-06T03:55:32;7.68;;;6.75;;
817;SDS011;391;51.052;6.954;2023-04-06T03:57:35;8.60;;;6.40;;
817;SDS011;391;51.052;6.954;2023-04-06T03:59:39;7.13;;;6.43;;
817;SDS011;391;51.052;6.954;2023-04-06T04:01:43;9.45;;;7.95;;
817;SDS011;391;51.052;6.954;2023-04-06T04:03:46;9.63;;;7.25;;
817;SDS011;391;51.052;6.954;2023-04-06T04:05:54;10.48;;;8.18;;
817;SDS011;391;51.052;6.954;2023-04-06T04:07:59;9.27;;;8.27;;
817;SDS011;391;51.052;6.954;2023-04-06T04:10:03;11.35;;;9.10;;
817;SDS011;391;51.052;6.954;2023-04-06T04:12:07;8.60;;;7.30;;
817;SDS011;391;51.052;6.954;2023-04-06T04:14:10;8.32;;;6.82;;
817;SDS011;391;51.052;6.954;2023-04-06T04:16:14;9.13;;;7.63;;
817;SDS011;391;51.052;6.954;2023-04-06T04:18:18;10.30;;;8.73;;
817;SDS011;391;51.052;6.954;2023-04-06T04:20:21;19.83;;;17.70;;
817;SDS011;391;51.052;6.954;2023-04-06T04:22:26;19.85;;;15.48;;
817;SDS011;391;51.052;6.954;2023-04-06T04:24:30;16.30;;;12.20;;
817;SDS011;391;51.052;6.954;2023-04-06T04:26:35;11.63;;;9.45;;
817;SDS011;391;51.052;6.954;2023-04-06T04:28:39;10.13;;;9.13;;
817;SDS011;391;51.052;6.954;2023-04-06T04:30:43;10.60;;;9.45;;
817;SDS011;391;51.052;6.954;2023-04-06T04:32:47;9.90;;;8.30;;
817;SDS011;391;51.052;6.954;2023-04-06T04:34:54;11.30;;;8.50;;
817;SDS011;391;51.052;6.954;2023-04-06T04:37:08;16.00;;;11.38;;
817;SDS011;391;51.052;6.954;2023-04-06T04:39:27;16.30;;;10.52;;
817;SDS011;391;51.052;6.954;2023-04-06T04:41:38;10.27;;;9.13;;
817;SDS011;391;51.052;6.954;2023-04-06T04:43:44;10.00;;;9.00;;
817;SDS011;391;51.052;6.954;2023-04-06T04:45:52;11.50;;;8.73;;
817;SDS011;391;51.052;6.954;2023-04-06T04:48:17;9.23;;;8.25;;
817;SDS011;391;51.052;6.954;2023-04-06T04:50:26;11.05;;;7.90;;
817;SDS011;391;51.052;6.954;2023-04-06T04:52:32;7.35;;;6.25;;
817;SDS011;391;51.052;6.954;2023-04-06T04:54:56;10.45;;;8.18;;
817;SDS011;391;51.052;6.954;2023-04-06T04:57:02;9.25;;;6.80;;
817;SDS011;391;51.052;6.954;2023-04-06T04:59:17;10.95;;;7.82;;
817;SDS011;391;51.052;6.954;2023-04-06T05:01:29;8.55;;;6.75;;
817;SDS011;391;51.052;6.954;2023-04-06T05:03:48;8.35;;;7.45;;
817;SDS011;391;51.052;6.954;2023-04-06T05:05:52;7.03;;;6.33;;
817;SDS011;391;51.052;6.954;2023-04-06T05:07:58;8.30;;;5.93;;
817;SDS011;391;51.052;6.954;2023-04-06T05:10:16;10.52;;;7.13;;
817;SDS011;391;51.052;6.954;2023-04-06T05:12:27;9.93;;;8.35;;
817;SDS011;391;51.052;6.954;2023-04-06T05:14:40;10.07;;;8.00;;
817;SDS011;391;51.052;6.954;2023-04-06T05:16:49;9.63;;;7.55;;
817;SDS011;391;51.052;6.954;2023-04-06T05:18:53;11.20;;;8.68;;
817;SDS011;391;51.052;6.954;2023-04-06T05:21:02;10.95;;;6.82;;
817;SDS011;391;51.052;6.954;2023-04-06T05:23:23;8.70;;;7.32;;
817;SDS011;391;51.052;6.954;2023-04-06T05:25:29;7.90;;;6.72;;
817;SDS011;391;51.052;6.954;2023-04-06T05:27:39;7.97;;;7.18;;
817;SDS011;391;51.052;6.954;2023-04-06T05:29:58;8.90;;;7.07;;
817;SDS011;391;51.052;6.954;2023-04-06T05:32:03;8.75;;;6.38;;
817;SDS011;391;51.052;6.954;2023-04-06T05:34:09;9.45;;;8.40;;
817;SDS011;391;51.052;6.954;2023-04-06T05:36:13;7.25;;;6.55;;
817;SDS011;391;51.052;6.954;2023-04-06T05:38:19;8.93;;;5.93;;
817;SDS011;391;51.052;6.954;2023-04-06T05:40:23;10.60;;;7.60;;
817;SDS011;391;51.052;6.954;2023-04-06T05:42:28;11.35;;;8.15;;
817;SDS011;391;51.052;6.954;2023-04-06T05:44:40;8.65;;;7.90;;
817;SDS011;391;51.052;6.954;2023-04-06T05:46:47;9.65;;;7.82;;
817;SDS011;391;51.052;6.954;2023-04-06T05:48:52;9.20;;;7.93;;
817;SDS011;391;51.052;6.954;2023-04-06T05:50:59;8.55;;;7.22;;
817;SDS011;391;51.052;6.954;2023-04-06T05:53:13;7.68;;;6.82;;
817;SDS011;391;51.052;6.954;2023-04-06T05:55:22;12.50;;;8.03;;
817;SDS011;391;51.052;6.954;2023-04-06T05:57:39;8.18;;;7.35;;
817;SDS011;391;51.052;6.954;2023-04-06T05:59:43;9.32;;;7.85;;
817;SDS011;391;51.052;6.954;2023-04-06T06:01:49;7.22;;;6.45;;
817;SDS011;391;51.052;6.954;2023-04-06T06:03:53;10.43;;;7.65;;
817;SDS011;391;51.052;6.954;2023-04-06T06:06:01;8.57;;;6.28;;
817;SDS011;391;51.052;6.954;2023-04-06T06:08:36;7.20;;;5.88;;
817;SDS011;391;51.052;6.954;2023-04-06T06:10:46;9.07;;;7.97;;
817;SDS011;391;51.052;6.954;2023-04-06T06:12:53;9.70;;;8.73;;
817;SDS011;391;51.052;6.954;2023-04-06T06:14:57;15.50;;;12.18;;
817;SDS011;391;51.052;6.954;2023-04-06T06:17:02;10.13;;;8.27;;
817;SDS011;391;51.052;6.954;2023-04-06T06:19:06;9.73;;;8.23;;
817;SDS011;391;51.052;6.954;2023-04-06T06:21:10;9.13;;;7.50;;
817;SDS011;391;51.052;6.954;2023-04-06T06:23:15;10.10;;;6.37;;
817;SDS011;391;51.052;6.954;2023-04-06T06:25:19;6.80;;;6.00;;
817;SDS011;391;51.052;6.954;2023-04-06T06:27:24;8.83;;;6.90;;
817;SDS011;391;51.052;6.954;2023-04-06T06:29:29;10.90;;;7.27;;
817;SDS011;391;51.052;6.954;2023-04-06T06:31:34;8.63;;;5.83;;
817;SDS011;391;51.052;6.954;2023-04-06T06:33:38;7.00;;;6.30;;
817;SDS011;391;51.052;6.954;2023-04-06T06:35:42;7.68;;;5.72;;
817;SDS011;391;51.052;6.954;2023-04-06T06:37:46;8.30;;;7.37;;
817;SDS011;391;51.052;6.954;2023-04-06T06:39:53;7.17;;;6.50;;
817;SDS011;391;51.052;6.954;2023-04-06T06:41:56;7.43;;;6.40;;
817;SDS011;391;51.052;6.954;2023-04-06T06:44:19;7.77;;;6.63;;
817;SDS011;391;51.052;6.954;2023-04-06T06:46:24;9.87;;;8.37;;
817;SDS011;391;51.052;6.954;2023-04-06T06:48:28;8.83;;;7.80;;
817;SDS011;391;51.052;6.954;2023-04-06T06:50:32;10.13;;;7.60;;
817;SDS011;391;51.052;6.954;2023-04-06T06:52:36;11.50;;;8.77;;
817;SDS011;391;51.052;6.954;2023-04-06T06:54:39;9.60;;;7.90;;
817;SDS011;391;51.052;6.954;2023-04-06T06:56:43;14.43;;;8.10;;
817;SDS011;391;51.052;6.954;2023-04-06T06:58:46;11.43;;;7.87;;
817;SDS011;391;51.052;6.954;2023-04-06T07:00:50;16.60;;;10.10;;
817;SDS011;391;51.052;6.954;2023-04-06T07:02:55;15.93;;;11.33;;
817;SDS011;391;51.052;6.954;2023-04-06T07:04:59;15.40;;;8.70;;
817;SDS011;391;51.052;6.954;2023-04-06T07:07:11;14.00;;;9.20;;
817;SDS011;391;51.052;6.954;2023-04-06T07:09:14;12.83;;;8.93;;
817;SDS011;391;51.052;6.954;2023-04-06T07:11:18;11.73;;;9.03;;
817;SDS011;391;51.052;6.954;2023-04-06T07:13:22;11.70;;;8.10;;
817;SDS011;391;51.052;6.954;2023-04-06T07:15:30;11.63;;;9.00;;
817;SDS011;391;51.052;6.954;2023-04-06T07:17:33;8.37;;;6.77;;
817;SDS011;391;51.052;6.954;2023-04-06T07:19:38;13.50;;;8.27;;
817;SDS011;391;51.052;6.954;2023-04-06T07:21:42;9.90;;;7.80;;
817;SDS011;391;51.052;6.954;2023-04-06T07:23:46;10.60;;;7.87;;
817;SDS011;391;51.052;6.954;2023-04-06T07:25:51;9.33;;;7.90;;
817;SDS011;391;51.052;6.954;2023-04-06T07:27:56;11.07;;;9.30;;
817;SDS011;391;51.052;6.954;2023-04-06T07:30:00;12.23;;;8.90;;
817;SDS011;391;51.052;6.954;2023-04-06T07:32:05;14.90;;;10.47;;
817;SDS011;391;51.052;6.954;2023-04-06T07:34:09;11.20;;;8.37;;
817;SDS011;391;51.052;6.954;2023-04-06T07:36:15;10.43;;;8.17;;
817;SDS011;391;51.052;6.954;2023-04-06T07:38:18;9.67;;;8.17;;
817;SDS011;391;51.052;6.954;2023-04-06T07:40:22;13.73;;;8.00;;
817;SDS011;391;51.052;6.954;2023-04-06T07:42:28;16.10;;;8.07;;
817;SDS011;391;51.052;6.954;2023-04-06T07:44:32;13.53;;;9.77;;
817;SDS011;391;51.052;6.954;2023-04-06T07:46:35;13.50;;;8.13;;
817;SDS011;391;51.052;6.954;2023-04-06T07:48:39;12.03;;;9.07;;
817;SDS011;391;51.052;6.954;2023-04-06T07:50:44;9.57;;;7.80;;
817;SDS011;391;51.052;6.954;2023-04-06T07:52:51;14.43;;;9.30;;
817;SDS011;391;51.052;6.954;2023-04-06T07:54:55;10.50;;;8.03;;
817;SDS011;391;51.052;6.954;2023-04-06T07:56:58;10.00;;;8.80;;
817;SDS011;391;51.052;6.954;2023-04-06T07:59:01;13.77;;;8.93;;
817;SDS011;391;51.052;6.954;2023-04-06T08:01:05;11.30;;;8.83;;
817;SDS011;391;51.052;6.954;2023-04-06T08:03:09;11.03;;;7.90;;
817;SDS011;391;51.052;6.954;2023-04-06T08:05:13;15.37;;;8.70;;
817;SDS011;391;51.052;6.954;2023-04-06T08:07:16;13.77;;;8.80;;
817;SDS011;391;51.052;6.954;2023-04-06T08:09:21;13.63;;;7.93;;
817;SDS011;391;51.052;6.954;2023-04-06T08:11:24;12.73;;;9.23;;
817;SDS011;391;51.052;6.954;2023-04-06T08:13:28;16.40;;;8.40;;
817;SDS011;391;51.052;6.954;2023-04-06T08:15:32;12.97;;;8.90;;
817;SDS011;391;51.052;6.954;2023-04-06T08:17:35;11.27;;;7.73;;
817;SDS011;391;51.052;6.954;2023-04-06T08:19:39;12.70;;;8.47;;
817;SDS011;391;51.052;6.954;2023-04-06T08:21:45;12.40;;;9.50;;
817;SDS011;391;51.052;6.954;2023-04-06T08:23:49;11.97;;;9.10;;
817;SDS011;391;51.052;6.954;2023-04-06T08:25:54;12.83;;;9.10;;
817;SDS011;391;51.052;6.954;2023-04-06T08:27:57;10.27;;;8.80;;
817;SDS011;391;51.052;6.954;2023-04-06T08:30:01;12.07;;;9.20;;
817;SDS011;391;51.052;6.954;2023-04-06T08:32:05;11.23;;;8.93;;
817;SDS011;391;51.052;6.954;2023-04-06T08:34:08;22.97;;;9.60;;
817;SDS011;391;51.052;6.954;2023-04-06T08:36:15;18.90;;;10.37;;
817;SDS011;391;51.052;6.954;2023-04-06T08:38:22;14.20;;;9.57;;
817;SDS011;391;51.052;6.954;2023-04-06T08:40:25;10.10;;;8.10;;
817;SDS011;391;51.052;6.954;2023-04-06T08:42:31;13.00;;;9.53;;
817;SDS011;391;51.052;6.954;2023-04-06T08:44:36;19.30;;;10.20;;
817;SDS011;391;51.052;6.954;2023-04-06T08:46:39;12.90;;;10.10;;
817;SDS011;391;51.052;6.954;2023-04-06T08:48:43;13.20;;;9.27;;
817;SDS011;391;51.052;6.954;2023-04-06T08:50:50;14.93;;;9.30;;
817;SDS011;391;51.052;6.954;2023-04-06T08:52:54;14.60;;;9.53;;
817;SDS011;391;51.052;6.954;2023-04-06T08:54:59;13.67;;;9.10;;
817;SDS011;391;51.052;6.954;2023-04-06T08:57:02;18.03;;;9.20;;
817;SDS011;391;51.052;6.954;2023-04-06T08:59:08;12.07;;;8.13;;
817;SDS011;391;51.052;6.954;2023-04-06T09:01:12;12.63;;;9.60;;
817;SDS011;391;51.052;6.954;2023-04-06T09:03:17;10.10;;;9.00;;
817;SDS011;391;51.052;6.954;2023-04-06T09:05:24;12.80;;;9.40;;
817;SDS011;391;51.052;6.954;2023-04-06T09:07:28;11.37;;;9.70;;
817;SDS011;391;51.052;6.954;2023-04-06T09:09:32;14.80;;;10.30;;
817;SDS011;391;51.052;6.954;2023-04-06T09:11:44;14.87;;;9.37;;
817;SDS011;391;51.052;6.954;2023-04-06T09:13:49;12.17;;;9.57;;
817;SDS011;391;51.052;6.954;2023-04-06T09:16:02;13.10;;;9.73;;
817;SDS011;391;51.052;6.954;2023-04-06T09:18:08;13.93;;;9.50;;
817;SDS011;391;51.052;6.954;2023-04-06T09:20:11;14.63;;;9.97;;
817;SDS011;391;51.052;6.954;2023-04-06T09:22:16;16.53;;;10.13;;
817;SDS011;391;51.052;6.954;2023-04-06T09:24:19;11.60;;;8.57;;
817;SDS011;391;51.052;6.954;2023-04-06T09:26:28;13.93;;;9.37;;
817;SDS011;391;51.052;6.954;2023-04-06T09:28:40;12.17;;;10.20;;
817;SDS011;391;51.052;6.954;2023-04-06T09:30:47;15.33;;;10.80;;
817;SDS011;391;51.052;6.954;2023-04-06T09:32:53;12.40;;;8.70;;
817;SDS011;391;51.052;6.954;2023-04-06T09:35:05;11.60;;;9.03;;
817;SDS011;391;51.052;6.954;2023-04-06T09:37:13;14.30;;;9.60;;
817;SDS011;391;51.052;6.954;2023-04-06T09:39:19;16.03;;;10.40;;
817;SDS011;391;51.052;6.954;2023-04-06T09:41:25;12.80;;;10.03;;
817;SDS011;391;51.052;6.954;2023-04-06T09:43:30;11.00;;;9.20;;
817;SDS011;391;51.052;6.954;2023-04-06T09:45:33;13.33;;;9.23;;
817;SDS011;391;51.052;6.954;2023-04-06T09:47:37;15.33;;;10.23;;
817;SDS011;391;51.052;6.954;2023-04-06T09:49:44;10.90;;;9.00;;
817;SDS011;391;51.052;6.954;2023-04-06T09:51:53;11.50;;;8.80;;
817;SDS011;391;51.052;6.954;2023-04-06T09:53:59;16.30;;;10.70;;
817;SDS011;391;51.052;6.954;2023-04-06T09:56:05;13.70;;;9.80;;
817;SDS011;391;51.052;6.954;2023-04-06T09:58:15;15.17;;;9.50;;
817;SDS011;391;51.052;6.954;2023-04-06T10:00:21;13.63;;;10.17;;
817;SDS011;391;51.052;6.954;2023-04-06T10:02:27;12.13;;;8.93;;
817;SDS011;391;51.052;6.954;2023-04-06T10:04:40;13.13;;;10.47;;
817;SDS011;391;51.052;6.954;2023-04-06T10:06:52;13.43;;;9.90;;
817;SDS011;391;51.052;6.954;2023-04-06T10:08:57;12.17;;;10.57;;
817;SDS011;391;51.052;6.954;2023-04-06T10:11:03;13.80;;;10.63;;
817;SDS011;391;51.052;6.954;2023-04-06T10:13:07;12.20;;;8.60;;
817;SDS011;391;51.052;6.954;2023-04-06T10:15:15;15.30;;;11.20;;
817;SDS011;391;51.052;6.954;2023-04-06T10:17:21;14.50;;;11.27;;
817;SDS011;391;51.052;6.954;2023-04-06T10:19:29;12.40;;;11.10;;
817;SDS011;391;51.052;6.954;2023-04-06T10:21:40;15.17;;;10.83;;
817;SDS011;391;51.052;6.954;2023-04-06T10:23:51;15.80;;;12.50;;
817;SDS011;391;51.052;6.954;2023-04-06T10:25:57;11.83;;;9.30;;
817;SDS011;391;51.052;6.954;2023-04-06T10:28:04;15.37;;;10.90;;
817;SDS011;391;51.052;6.954;2023-04-06T10:30:08;13.60;;;10.10;;
817;SDS011;391;51.052;6.954;2023-04-06T10:32:12;14.20;;;10.67;;
817;SDS011;391;51.052;6.954;2023-04-06T10:34:16;12.60;;;10.43;;
817;SDS011;391;51.052;6.954;2023-04-06T10:36:21;15.37;;;11.27;;
817;SDS011;391;51.052;6.954;2023-04-06T10:38:36;15.00;;;11.47;;
817;SDS011;391;51.052;6.954;2023-04-06T10:40:43;19.20;;;11.93;;
817;SDS011;391;51.052;6.954;2023-04-06T10:42:46;21.00;;;13.30;;
817;SDS011;391;51.052;6.954;2023-04-06T10:44:50;14.50;;;11.03;;
817;SDS011;391;51.052;6.954;2023-04-06T10:46:54;13.00;;;10.87;;
817;SDS011;391;51.052;6.954;2023-04-06T10:49:08;16.53;;;10.80;;
817;SDS011;391;51.052;6.954;2023-04-06T10:51:15;12.97;;;11.47;;
817;SDS011;391;51.052;6.954;2023-04-06T10:53:23;13.00;;;11.70;;
817;SDS011;391;51.052;6.954;2023-04-06T10:55:29;14.50;;;10.70;;
817;SDS011;391;51.052;6.954;2023-04-06T10:57:34;15.60;;;11.27;;
817;SDS011;391;51.052;6.954;2023-04-06T10:59:41;13.03;;;10.73;;
817;SDS011;391;51.052;6.954;2023-04-06T11:01:45;13.43;;;10.37;;
817;SDS011;391;51.052;6.954;2023-04-06T11:03:50;9.80;;;8.57;;
817;SDS011;391;51.052;6.954;2023-04-06T11:05:55;13.67;;;9.80;;
817;SDS011;391;51.052;6.954;2023-04-06T11:07:59;14.20;;;9.53;;
817;SDS011;391;51.052;6.954;2023-04-06T11:10:03;18.13;;;10.20;;
817;SDS011;391;51.052;6.954;2023-04-06T11:12:24;15.00;;;10.30;;
817;SDS011;391;51.052;6.954;2023-04-06T11:14:28;17.10;;;9.80;;
817;SDS011;391;51.052;6.954;2023-04-06T11:16:32;11.87;;;9.93;;
817;SDS011;391;51.052;6.954;2023-04-06T11:18:36;16.37;;;11.20;;
817;SDS011;391;51.052;6.954;2023-04-06T11:20:40;13.10;;;9.20;;
817;SDS011;391;51.052;6.954;2023-04-06T11:22:50;12.33;;;9.90;;
817;SDS011;391;51.052;6.954;2023-04-06T11:25:04;16.00;;;10.63;;
817;SDS011;391;51.052;6.954;2023-04-06T11:27:08;14.83;;;10.23;;
817;SDS011;391;51.052;6.954;2023-04-06T11:29:15;13.37;;;10.13;;
817;SDS011;391;51.052;6.954;2023-04-06T11:31:19;18.40;;;10.83;;
817;SDS011;391;51.052;6.954;2023-04-06T11:33:29;11.10;;;9.70;;
817;SDS011;391;51.052;6.954;2023-04-06T11:35:37;13.33;;;10.60;;
817;SDS011;391;51.052;6.954;2023-04-06T11:37:42;13.50;;;10.20;;
817;SDS011;391;51.052;6.954;2023-04-06T11:39:47;13.87;;;11.33;;
817;SDS011;391;51.052;6.954;2023-04-06T11:41:53;12.83;;;10.70;;
817;SDS011;391;51.052;6.954;2023-04-06T11:44:00;15.03;;;11.50;;
817;SDS011;391;51.052;6.954;2023-04-06T11:46:06;12.47;;;10.03;;
817;SDS011;391;51.052;6.954;2023-04-06T11:48:19;12.90;;;10.40;;
817;SDS011;391;51.052;6.954;2023-04-06T11:50:31;11.50;;;9.83;;
817;SDS011;391;51.052;6.954;2023-04-06T11:52:36;9.60;;;8.60;;
817;SDS011;391;51.052;6.954;2023-04-06T11:54:41;16.07;;;11.67;;
817;SDS011;391;51.052;6.954;2023-04-06T11:56:46;10.97;;;9.77;;
817;SDS011;391;51.052;6.954;2023-04-06T11:58:49;14.20;;;10.87;;
817;SDS011;391;51.052;6.954;2023-04-06T12:00:53;14.13;;;11.83;;
817;SDS011;391;51.052;6.954;2023-04-06T12:02:58;11.87;;;9.83;;
817;SDS011;391;51.052;6.954;2023-04-06T12:05:01;14.60;;;10.90;;
817;SDS011;391;51.052;6.954;2023-04-06T12:07:05;14.23;;;10.53;;
817;SDS011;391;51.052;6.954;2023-04-06T12:09:09;12.17;;;8.80;;
817;SDS011;391;51.052;6.954;2023-04-06T12:11:12;12.40;;;8.90;;
817;SDS011;391;51.052;6.954;2023-04-06T12:13:16;12.50;;;10.33;;
817;SDS011;391;51.052;6.954;2023-04-06T12:15:19;14.20;;;9.67;;
817;SDS011;391;51.052;6.954;2023-04-06T12:17:23;13.70;;;10.33;;
817;SDS011;391;51.052;6.954;2023-04-06T12:19:28;11.43;;;8.67;;
817;SDS011;391;51.052;6.954;2023-04-06T12:21:34;13.40;;;10.07;;
817;SDS011;391;51.052;6.954;2023-04-06T12:23:38;12.47;;;10.23;;
817;SDS011;391;51.052;6.954;2023-04-06T12:25:41;12.67;;;10.17;;
817;SDS011;391;51.052;6.954;2023-04-06T12:27:45;13.60;;;10.03;;
817;SDS011;391;51.052;6.954;2023-04-06T12:29:49;14.30;;;11.03;;
817;SDS011;391;51.052;6.954;2023-04-06T12:31:52;14.57;;;10.57;;
817;SDS011;391;51.052;6.954;2023-04-06T12:33:56;12.43;;;11.13;;
817;SDS011;391;51.052;6.954;2023-04-06T12:36:01;11.73;;;10.10;;
817;SDS011;391;51.052;6.954;2023-04-06T12:38:04;17.40;;;10.03;;
817;SDS011;391;51.052;6.954;2023-04-06T12:40:08;12.90;;;10.57;;
817;SDS011;391;51.052;6.954;2023-04-06T12:42:13;15.13;;;10.77;;
817;SDS011;391;51.052;6.954;2023-04-06T12:44:17;12.03;;;9.70;;
817;SDS011;391;51.052;6.954;2023-04-06T12:46:21;15.60;;;10.20;;
817;SDS011;391;51.052;6.954;2023-04-06T12:48:25;11.93;;;8.60;;
817;SDS011;391;51.052;6.954;2023-04-06T12:50:29;10.93;;;7.80;;
817;SDS011;391;51.052;6.954;2023-04-06T12:52:35;9.93;;;8.83;;
817;SDS011;391;51.052;6.954;2023-04-06T12:54:38;11.37;;;9.57;;
817;SDS011;391;51.052;6.954;2023-04-06T12:56:42;12.50;;;10.00;;
817;SDS011;391;51.052;6.954;2023-04-06T12:58:45;11.60;;;9.90;;
817;SDS011;391;51.052;6.954;2023-04-06T13:00:49;10.90;;;8.90;;
817;SDS011;391;51.052;6.954;2023-04-06T13:02:53;12.00;;;8.77;;
817;SDS011;391;51.052;6.954;2023-04-06T13:04:57;13.13;;;8.83;;
817;SDS011;391;51.052;6.954;2023-04-06T13:07:00;10.57;;;8.63;;
817;SDS011;391;51.052;6.954;2023-04-06T13:09:05;11.27;;;8.90;;
817;SDS011;391;51.052;6.954;2023-04-06T13:11:09;11.17;;;7.63;;
817;SDS011;391;51.052;6.954;2023-04-06T13:13:13;17.83;;;8.97;;
817;SDS011;391;51.052;6.954;2023-04-06T13:15:17;10.60;;;9.00;;
817;SDS011;391;51.052;6.954;2023-04-06T13:17:21;9.27;;;7.20;;
817;SDS011;391;51.052;6.954;2023-04-06T13:19:24;9.00;;;7.60;;